Time;durP1;ratioP1;P1;durP2;ratioP2;P2;SDS_P1;SDS_P2;PMS_P1;PMS_P2;Temp;Humidity;BMP_temperature;BMP_pressure;BME280_temperature;BME280_humidity;BME280_pressure;Samples;Min_cycle;Max_cycle;Signal;HPM_P1;HPM_P2
2021/04/20 00:01:04;;;;;;;0.10;0.10;;;7.90;90.60;;;;;;4997031;28;20037;-87
2021/04/20 00:03:31;;;;;;;0.35;0.20;;;8.00;90.60;;;;;;5007266;28;20037;-87
2021/04/20 00:05:57;;;;;;;0.10;0.10;;;7.90;91.20;;;;;;4997471;28;20034;-87
2021/04/20 00:08:23;;;;;;;1.17;1.08;;;7.70;91.20;;;;;;4997364;28;20036;-88
2021/04/20 00:10:48;;;;;;;0.10;0.10;;;7.80;91.20;;;;;;5008815;28;20046;-87
2021/04/20 00:13:15;;;;;;;0.20;0.20;;;7.70;91.50;;;;;;5002448;28;20041;-87
2021/04/20 00:15:40;;;;;;;0.10;0.10;;;7.70;91.60;;;;;;5008260;28;20088;-87
2021/04/20 00:18:07;;;;;;;0.10;0.10;;;7.70;91.40;;;;;;5004687;28;20452;-86
2021/04/20 00:20:35;;;;;;;0.45;0.45;;;7.60;92.10;;;;;;5000616;28;20509;-87
2021/04/20 00:23:03;;;;;;;2.03;0.70;;;7.50;92.30;;;;;;4994217;28;20048;-88
2021/04/20 00:25:29;;;;;;;0.20;0.20;;;7.50;92.40;;;;;;5014150;28;20026;-87
2021/04/20 00:27:55;;;;;;;0.20;0.20;;;7.60;92.30;;;;;;4996912;28;20032;-87
2021/04/20 00:30:21;;;;;;;0.88;0.82;;;7.40;92.60;;;;;;4991541;28;20046;-87
2021/04/20 00:32:46;;;;;;;0.15;0.15;;;7.40;92.70;;;;;;5003806;28;20112;-86
2021/04/20 00:35:12;;;;;;;0.13;0.13;;;7.30;92.60;;;;;;4997773;28;20030;-86
2021/04/20 00:37:39;;;;;;;0.35;0.35;;;7.30;92.70;;;;;;5008767;28;20044;-87
2021/04/20 00:40:07;;;;;;;0.30;0.30;;;7.30;92.90;;;;;;4996188;28;20069;-88
2021/04/20 00:42:44;;;;;;;0.03;0.03;;;7.20;93.10;;;;;;5006379;28;20121;-88
2021/04/20 00:45:11;;;;;;;0.10;0.10;;;7.40;93.40;;;;;;5017722;28;20824;-88
2021/04/20 00:47:37;;;;;;;1.05;0.95;;;7.40;93.20;;;;;;5004144;28;20046;-88
2021/04/20 00:50:03;;;;;;;0.47;0.35;;;7.40;93.10;;;;;;4990675;28;20022;-88
2021/04/20 00:52:29;;;;;;;0.30;0.30;;;7.20;93.20;;;;;;5020993;28;20042;-88
2021/04/20 00:54:54;;;;;;;0.22;0.22;;;7.50;93.30;;;;;;4999898;28;20036;-87
2021/04/20 00:57:20;;;;;;;0.13;0.13;;;7.50;93.00;;;;;;5001921;28;20101;-87
2021/04/20 00:59:46;;;;;;;0.10;0.10;;;7.40;93.10;;;;;;4999883;28;20048;-88
2021/04/20 01:02:13;;;;;;;0.20;0.20;;;7.30;93.40;;;;;;5004207;28;20101;-88
2021/04/20 01:04:39;;;;;;;0.47;0.47;;;7.20;93.50;;;;;;5006187;28;20053;-88
2021/04/20 01:07:05;;;;;;;0.20;0.20;;;7.20;93.50;;;;;;4999785;28;20049;-88
2021/04/20 01:09:31;;;;;;;0.40;0.40;;;7.10;94.00;;;;;;5002386;28;20776;-87
2021/04/20 01:11:57;;;;;;;0.20;0.20;;;7.00;94.20;;;;;;4994194;28;20030;-86
2021/04/20 01:14:23;;;;;;;0.30;0.30;;;7.10;94.00;;;;;;5003376;28;20692;-87
2021/04/20 01:16:49;;;;;;;0.30;0.30;;;6.90;94.60;;;;;;5006632;28;20026;-87
2021/04/20 01:19:16;;;;;;;0.10;0.10;;;6.90;94.30;;;;;;4994890;28;20034;-87
2021/04/20 01:21:43;;;;;;;0.10;0.10;;;6.90;94.70;;;;;;4994374;28;20034;-87
2021/04/20 01:24:09;;;;;;;;;;;6.80;95.00;;;;;;5001347;28;20059;-87
2021/04/20 01:26:37;;;;;;;0.10;0.10;;;6.80;95.00;;;;;;4996405;28;19913;-87
2021/04/20 01:29:05;;;;;;;2.25;0.65;;;6.80;95.10;;;;;;5005826;28;20087;-87
2021/04/20 01:31:33;;;;;;;0.47;0.47;;;6.70;95.00;;;;;;5006560;28;20109;-87
2021/04/20 01:33:59;;;;;;;0.20;0.20;;;6.80;95.30;;;;;;5004764;28;20014;-87
2021/04/20 01:36:27;;;;;;;0.32;0.32;;;6.70;95.40;;;;;;5004627;28;20034;-87
2021/04/20 01:38:54;;;;;;;0.20;0.20;;;6.70;95.30;;;;;;4997458;28;20034;-87
2021/04/20 01:41:21;;;;;;;0.20;0.20;;;6.80;95.50;;;;;;5001753;28;20034;-87
2021/04/20 01:43:47;;;;;;;;;;;6.70;95.70;;;;;;4991706;28;20030;-86
2021/04/20 01:46:15;;;;;;;0.47;0.47;;;6.60;95.80;;;;;;4999120;28;20312;-87
2021/04/20 01:48:40;;;;;;;0.10;0.10;;;6.60;96.00;;;;;;5001184;28;20030;-87
2021/04/20 01:51:07;;;;;;;0.10;0.10;;;6.50;96.20;;;;;;4997072;28;20421;-88
2021/04/20 01:53:33;;;;;;;1.40;0.75;;;6.50;96.40;;;;;;4998116;28;20085;-87
2021/04/20 01:56:04;;;;;;;0.10;0.10;;;6.50;96.40;;;;;;4992781;28;20022;-88
2021/04/20 01:58:30;;;;;;;0.20;0.20;;;6.40;96.70;;;;;;4998148;28;20375;-87
2021/04/20 02:00:57;;;;;;;0.10;0.10;;;6.30;96.90;;;;;;5006748;28;20041;-88
2021/04/20 02:03:28;;;;;;;0.10;0.10;;;6.40;96.90;;;;;;5022920;28;20040;-88
2021/04/20 02:05:55;;;;;;;0.10;0.10;;;6.40;96.80;;;;;;5001183;28;20121;-87
2021/04/20 02:08:21;;;;;;;0.13;0.13;;;6.30;97.00;;;;;;5005526;28;20533;-87
2021/04/20 02:10:48;;;;;;;0.10;0.10;;;6.30;96.70;;;;;;4996554;28;20034;-87
2021/04/20 02:13:15;;;;;;;0.20;0.20;;;6.40;96.70;;;;;;5000140;28;20061;-87
2021/04/20 02:15:42;;;;;;;0.05;0.05;;;6.30;97.30;;;;;;5005470;28;20092;-87
2021/04/20 02:18:08;;;;;;;0.30;0.30;;;6.20;97.40;;;;;;5012907;28;20113;-87
2021/04/20 02:20:37;;;;;;;0.10;0.10;;;6.20;98.20;;;;;;5011693;28;20033;-87
2021/04/20 02:23:03;;;;;;;0.20;0.20;;;6.10;97.90;;;;;;4997074;28;20081;-87
2021/04/20 02:25:30;;;;;;;0.10;0.10;;;6.20;98.20;;;;;;5000131;28;20034;-87
2021/04/20 02:27:56;;;;;;;0.10;0.10;;;6.20;97.90;;;;;;4999832;28;20048;-88
2021/04/20 02:30:23;;;;;;;0.70;0.70;;;6.20;97.90;;;;;;5000724;28;20037;-88
2021/04/20 02:32:49;;;;;;;1.65;0.70;;;6.30;97.90;;;;;;5001439;28;20026;-87
2021/04/20 02:35:17;;;;;;;0.10;0.10;;;6.20;98.00;;;;;;5004496;28;20031;-87
2021/04/20 02:37:45;;;;;;;0.20;0.20;;;6.10;98.30;;;;;;5016705;28;20129;-89
2021/04/20 02:40:21;;;;;;;0.40;0.40;;;6.20;98.10;;;;;;4997440;28;20045;-87
2021/04/20 02:42:49;;;;;;;0.40;0.40;;;6.00;98.70;;;;;;4994270;28;20034;-86
2021/04/20 02:45:16;;;;;;;0.17;0.17;;;6.00;98.90;;;;;;5002408;28;20097;-88
2021/04/20 02:47:42;;;;;;;0.30;0.30;;;6.00;98.90;;;;;;5010313;28;20029;-87
2021/04/20 02:50:14;;;;;;;0.40;0.40;;;6.00;99.30;;;;;;5009099;28;20494;-87
2021/04/20 02:52:40;;;;;;;0.20;0.20;;;6.10;98.90;;;;;;5011004;28;20788;-88
2021/04/20 02:55:09;;;;;;;0.90;0.55;;;6.10;98.90;;;;;;5005812;28;20085;-88
2021/04/20 02:57:42;;;;;;;0.20;0.20;;;5.90;99.00;;;;;;4999776;28;20554;-87
2021/04/20 03:00:15;;;;;;;0.20;0.20;;;5.90;99.20;;;;;;4997024;28;20117;-88
2021/04/20 03:02:44;;;;;;;0.10;0.10;;;5.80;99.30;;;;;;5002931;28;20118;-88
2021/04/20 03:05:16;;;;;;;0.57;0.57;;;5.90;99.50;;;;;;5001247;28;20101;-88
2021/04/20 03:07:43;;;;;;;0.20;0.20;;;6.10;99.30;;;;;;5008259;28;20474;-88
2021/04/20 03:10:10;;;;;;;;;;;5.80;99.50;;;;;;4994707;28;20026;-88
2021/04/20 03:12:36;;;;;;;0.17;0.17;;;5.80;99.60;;;;;;5007991;28;19932;-87
2021/04/20 03:15:09;;;;;;;1.65;0.98;;;5.90;99.90;;;;;;5009801;28;20046;-88
2021/04/20 03:17:35;;;;;;;0.50;0.50;;;5.70;99.90;;;;;;5001787;28;20034;-89
2021/04/20 03:20:01;;;;;;;0.10;0.10;;;5.70;99.90;;;;;;4994012;28;20034;-88
2021/04/20 03:22:27;;;;;;;0.10;0.10;;;5.80;99.70;;;;;;4995634;28;20045;-87
2021/04/20 03:25:10;;;;;;;0.40;0.40;;;5.80;99.90;;;;;;4994014;28;20033;-87
2021/04/20 03:27:38;;;;;;;0.55;0.47;;;5.80;99.90;;;;;;4991738;28;20500;-87
2021/04/20 03:30:06;;;;;;;0.40;0.40;;;5.90;99.90;;;;;;4993387;28;20041;-87
2021/04/20 03:32:32;;;;;;;0.30;0.30;;;5.80;99.90;;;;;;4999804;28;20042;-88
2021/04/20 03:35:07;;;;;;;0.20;0.20;;;5.80;99.90;;;;;;5008077;28;20127;-88
2021/04/20 03:37:51;;;;;;;1.23;1.13;;;5.80;99.90;;;;;;5002532;28;20062;-88
2021/04/20 03:40:19;;;;;;;0.17;0.17;;;5.70;99.90;;;;;;5001601;28;20113;-90
2021/04/20 03:42:53;;;;;;;0.20;0.20;;;5.70;99.90;;;;;;4991021;28;20085;-89
2021/04/20 03:45:26;;;;;;;0.45;0.35;;;5.60;99.90;;;;;;4993153;28;20053;-88
2021/04/20 03:48:01;;;;;;;0.10;0.10;;;5.60;99.90;;;;;;5001326;28;20038;-87
2021/04/20 03:50:34;;;;;;;0.10;0.10;;;5.50;99.90;;;;;;5009655;28;20029;-87
2021/04/20 03:53:03;;;;;;;0.10;0.10;;;5.80;99.90;;;;;;4991630;28;20034;-87
2021/04/20 03:55:32;;;;;;;22.95;0.90;;;5.70;99.90;;;;;;5000696;28;20524;-87
2021/04/20 03:57:59;;;;;;;0.10;0.10;;;5.70;99.90;;;;;;5002218;28;20060;-88
2021/04/20 04:00:26;;;;;;;0.50;0.50;;;5.40;99.90;;;;;;4999336;28;20030;-87
2021/04/20 04:02:55;;;;;;;1.17;1.10;;;5.30;99.90;;;;;;4998896;28;20030;-89
2021/04/20 04:05:25;;;;;;;0.10;0.10;;;5.50;99.90;;;;;;5000969;28;20031;-88
2021/04/20 04:07:53;;;;;;;0.60;0.35;;;5.50;99.90;;;;;;5015432;28;20030;-88
2021/04/20 04:10:21;;;;;;;0.25;0.25;;;5.40;99.90;;;;;;4991371;28;20027;-88
2021/04/20 04:12:52;;;;;;;0.20;0.20;;;5.50;99.90;;;;;;5009681;28;20030;-89
2021/04/20 04:15:21;;;;;;;0.30;0.30;;;5.50;99.90;;;;;;4994998;28;20781;-87
2021/04/20 04:17:48;;;;;;;0.65;0.65;;;5.50;99.90;;;;;;5001755;28;20036;-87
2021/04/20 04:20:15;;;;;;;0.25;0.25;;;5.50;99.90;;;;;;4995209;28;20887;-87
2021/04/20 04:23:02;;;;;;;0.13;0.13;;;5.50;99.90;;;;;;5023101;28;20041;-88
2021/04/20 04:25:41;;;;;;;0.15;0.15;;;5.70;99.90;;;;;;5001709;28;20780;-88
2021/04/20 04:28:11;;;;;;;0.10;0.10;;;5.70;99.90;;;;;;5001536;28;20145;-88
2021/04/20 04:30:38;;;;;;;0.70;0.50;;;5.70;99.90;;;;;;4995605;28;20033;-87
2021/04/20 04:33:04;;;;;;;;;;;5.50;99.90;;;;;;5004116;28;20052;-88
2021/04/20 04:35:33;;;;;;;0.43;0.43;;;5.60;99.90;;;;;;5007328;28;20044;-87
2021/04/20 04:38:01;;;;;;;0.20;0.20;;;5.60;99.90;;;;;;5025279;28;20033;-88
2021/04/20 04:40:28;;;;;;;0.47;0.47;;;5.60;99.90;;;;;;5007482;28;20034;-89
2021/04/20 04:42:54;;;;;;;0.20;0.20;;;5.50;99.90;;;;;;5002497;28;20052;-89
2021/04/20 04:45:20;;;;;;;0.25;0.25;;;5.50;99.90;;;;;;4999896;28;20113;-89
2021/04/20 04:47:46;;;;;;;0.20;0.20;;;5.50;99.90;;;;;;5004617;28;20033;-88
2021/04/20 04:50:13;;;;;;;0.50;0.50;;;5.50;99.90;;;;;;4991938;28;20034;-88
2021/04/20 04:52:40;;;;;;;0.10;0.10;;;5.50;99.90;;;;;;5006812;28;20064;-88
2021/04/20 04:55:08;;;;;;;0.20;0.20;;;5.50;99.90;;;;;;5007290;28;20041;-90
2021/04/20 04:57:35;;;;;;;0.13;0.13;;;5.50;99.90;;;;;;5005058;28;20087;-89
2021/04/20 05:00:04;;;;;;;;;;;5.40;99.90;;;;;;5008151;28;20037;-90
2021/04/20 05:02:30;;;;;;;0.15;0.15;;;5.40;99.90;;;;;;5016705;28;20512;-90
2021/04/20 05:04:56;;;;;;;0.13;0.13;;;5.50;99.90;;;;;;4998703;28;20018;-89
2021/04/20 05:07:24;;;;;;;0.23;0.23;;;5.60;99.90;;;;;;4995824;28;20034;-89
2021/04/20 05:09:58;;;;;;;0.20;0.20;;;5.60;99.90;;;;;;5002379;28;20052;-89
2021/04/20 05:12:25;;;;;;;0.60;0.43;;;5.60;99.90;;;;;;4993778;28;20031;-89
2021/04/20 05:14:51;;;;;;;;;;;5.70;99.90;;;;;;5005546;28;20034;-88
2021/04/20 05:17:21;;;;;;;0.60;0.60;;;5.70;99.90;;;;;;5003478;28;20081;-88
2021/04/20 05:19:49;;;;;;;0.13;0.13;;;5.80;99.90;;;;;;5002649;28;20030;-88
2021/04/20 05:22:15;;;;;;;0.17;0.17;;;5.90;99.90;;;;;;4993808;28;20569;-88
2021/04/20 05:24:41;;;;;;;0.22;0.22;;;6.00;99.90;;;;;;4993792;28;20034;-87
2021/04/20 05:27:07;;;;;;;0.15;0.15;;;6.10;99.90;;;;;;5003026;28;20405;-88
2021/04/20 05:29:39;;;;;;;0.20;0.20;;;6.10;99.90;;;;;;4992054;28;20037;-87
2021/04/20 05:32:05;;;;;;;0.13;0.13;;;6.10;99.90;;;;;;5005174;28;20029;-87
2021/04/20 05:34:31;;;;;;;0.30;0.30;;;6.20;99.90;;;;;;5006252;28;20045;-86
2021/04/20 05:36:58;;;;;;;0.10;0.10;;;6.40;99.90;;;;;;4997140;28;20026;-88
2021/04/20 05:39:23;;;;;;;0.10;0.10;;;6.60;99.90;;;;;;5000840;28;20069;-86
2021/04/20 05:41:49;;;;;;;0.32;0.32;;;7.10;99.90;;;;;;5004031;28;20142;-88
2021/04/20 05:44:16;;;;;;;0.28;0.28;;;7.50;99.90;;;;;;5001686;28;20026;-87
2021/04/20 05:46:47;;;;;;;1.45;1.10;;;7.10;99.90;;;;;;5007978;28;20022;-86
2021/04/20 05:49:14;;;;;;;0.20;0.20;;;7.10;99.90;;;;;;5009064;28;20030;-90
2021/04/20 05:51:41;;;;;;;0.30;0.30;;;7.00;99.90;;;;;;5002749;28;20034;-88
2021/04/20 05:54:08;;;;;;;2.72;0.75;;;7.10;99.90;;;;;;4987380;28;20026;-88
2021/04/20 05:56:34;;;;;;;0.60;0.60;;;7.00;99.90;;;;;;4989164;28;20161;-88
2021/04/20 05:59:02;;;;;;;0.10;0.10;;;7.00;99.90;;;;;;4989469;28;20978;-86
2021/04/20 06:01:29;;;;;;;0.32;0.32;;;7.10;99.90;;;;;;5004481;28;20125;-88
2021/04/20 06:03:56;;;;;;;0.10;0.10;;;7.30;99.90;;;;;;5004351;28;20022;-90
2021/04/20 06:06:24;;;;;;;0.35;0.35;;;7.60;99.90;;;;;;5004121;28;20034;-90
2021/04/20 06:08:53;;;;;;;0.20;0.20;;;7.80;99.90;;;;;;4988089;28;20398;-89
2021/04/20 06:11:20;;;;;;;0.10;0.10;;;7.50;99.90;;;;;;4989153;28;20030;-90
2021/04/20 06:13:47;;;;;;;0.20;0.20;;;7.50;99.90;;;;;;4989673;28;20093;-89
2021/04/20 06:16:13;;;;;;;0.10;0.10;;;7.70;99.90;;;;;;4987650;28;20068;-89
2021/04/20 06:18:39;;;;;;;0.10;0.10;;;8.00;99.90;;;;;;4987917;28;20034;-87
2021/04/20 06:21:07;;;;;;;0.05;0.05;;;8.10;99.90;;;;;;5008776;28;20033;-87
2021/04/20 06:23:34;;;;;;;0.52;0.52;;;8.20;99.90;;;;;;5006674;28;20046;-87
2021/04/20 06:26:02;;;;;;;0.98;0.90;;;8.20;99.90;;;;;;5008323;28;20030;-87
2021/04/20 06:28:31;;;;;;;0.25;0.25;;;8.30;99.80;;;;;;5008472;28;20032;-87
2021/04/20 06:31:02;;;;;;;0.28;0.28;;;8.50;99.60;;;;;;5006712;28;20022;-87
2021/04/20 06:33:32;;;;;;;0.10;0.10;;;8.80;99.20;;;;;;4999002;28;20067;-86
2021/04/20 06:36:06;;;;;;;0.45;0.45;;;9.20;98.70;;;;;;4998336;28;20038;-87
2021/04/20 06:38:33;;;;;;;0.32;0.30;;;9.40;98.50;;;;;;5007456;28;20033;-87
2021/04/20 06:41:01;;;;;;;;;;;9.90;98.00;;;;;;5001891;28;20041;-88
2021/04/20 06:43:37;;;;;;;0.20;0.20;;;9.90;97.70;;;;;;4996082;28;19910;-87
2021/04/20 06:46:28;;;;;;;0.38;0.38;;;10.20;97.00;;;;;;4994353;28;20088;-87
2021/04/20 06:49:12;;;;;;;0.30;0.28;;;9.90;97.00;;;;;;4988998;28;20033;-87
2021/04/20 06:51:42;;;;;;;0.10;0.10;;;10.00;97.10;;;;;;5008924;28;20029;-86
2021/04/20 06:54:28;;;;;;;0.10;0.10;;;10.00;97.30;;;;;;5015228;28;20496;-87
2021/04/20 06:57:11;;;;;;;0.25;0.25;;;10.00;96.90;;;;;;4992478;28;20066;-87
2021/04/20 06:59:45;;;;;;;0.28;0.25;;;10.20;96.90;;;;;;5005973;28;20034;-86
2021/04/20 07:02:30;;;;;;;0.00;0.00;;;10.80;96.60;;;;;;4999423;28;20172;-87
2021/04/20 07:05:00;;;;;;;0.63;0.63;;;11.90;94.20;;;;;;5001695;28;20022;-87
2021/04/20 07:07:32;;;;;;;0.30;0.30;;;12.70;93.70;;;;;;5024896;28;20026;-88
2021/04/20 07:10:07;;;;;;;0.13;0.13;;;12.80;93.00;;;;;;5015625;28;20058;-88
2021/04/20 07:12:37;;;;;;;0.10;0.10;;;13.50;93.10;;;;;;5026523;28;20735;-87
2021/04/20 07:15:04;;;;;;;0.20;0.20;;;14.00;91.00;;;;;;5003922;28;20061;-88
2021/04/20 07:17:48;;;;;;;0.55;0.55;;;12.80;92.00;;;;;;5013056;28;20769;-88
2021/04/20 07:20:25;;;;;;;0.10;0.10;;;12.70;93.00;;;;;;5017240;28;20369;-88
2021/04/20 07:23:08;;;;;;;1.45;0.43;;;12.50;93.60;;;;;;5000679;28;20057;-89
2021/04/20 07:26:11;;;;;;;0.28;0.25;;;12.70;92.00;;;;;;5002478;28;20054;-88
2021/04/20 07:28:53;;;;;;;0.22;0.20;;;13.90;91.30;;;;;;4999971;28;20036;-88
2021/04/20 07:31:31;;;;;;;0.10;0.10;;;15.40;89.20;;;;;;5000992;28;20160;-90
2021/04/20 07:34:03;;;;;;;0.17;0.17;;;14.40;88.60;;;;;;5002139;28;20494;-89
2021/04/20 07:36:58;;;;;;;0.15;0.15;;;15.50;88.50;;;;;;5002597;28;20026;-89
2021/04/20 07:39:27;;;;;;;0.10;0.10;;;15.20;87.80;;;;;;4996476;28;20046;-89
2021/04/20 07:41:59;;;;;;;0.17;0.17;;;17.20;85.80;;;;;;5006945;28;20033;-89
2021/04/20 07:44:34;;;;;;;0.20;0.10;;;18.40;79.60;;;;;;5010831;28;20123;-89
2021/04/20 07:47:09;;;;;;;0.22;0.20;;;19.50;77.80;;;;;;5008030;28;20117;-90
2021/04/20 07:50:03;;;;;;;0.10;0.10;;;20.00;73.90;;;;;;5003915;28;20169;-90
2021/04/20 07:52:32;;;;;;;0.90;0.60;;;20.00;74.20;;;;;;5003766;28;20104;-89
2021/04/20 07:55:11;;;;;;;0.10;0.10;;;20.60;73.40;;;;;;5001715;28;20053;-90
2021/04/20 07:57:57;;;;;;;0.10;0.10;;;19.50;75.20;;;;;;4996504;28;20117;-88
2021/04/20 08:00:35;;;;;;;0.13;0.13;;;16.50;76.00;;;;;;5006537;28;20046;-89
2021/04/20 08:03:07;;;;;;;0.10;0.10;;;16.60;76.90;;;;;;5009076;28;20506;-90
2021/04/20 08:05:46;;;;;;;0.88;0.43;;;16.40;77.70;;;;;;4995635;28;20035;-89
2021/04/20 08:08:33;;;;;;;0.47;0.47;;;17.30;78.30;;;;;;4988531;28;20023;-90
2021/04/20 08:11:05;;;;;;;0.10;0.10;;;16.80;75.40;;;;;;5000071;28;20022;-88
2021/04/20 08:13:43;;;;;;;0.10;0.10;;;16.80;76.40;;;;;;4998173;28;20078;-89
2021/04/20 08:16:33;;;;;;;0.17;0.17;;;17.30;76.80;;;;;;5008083;28;20110;-88
2021/04/20 08:19:05;;;;;;;0.10;0.10;;;17.60;76.70;;;;;;5019243;28;20045;-89
2021/04/20 08:21:32;;;;;;;0.30;0.30;;;18.10;72.80;;;;;;4996377;28;20030;-88
2021/04/20 08:24:00;;;;;;;;;;;17.40;76.80;;;;;;4999478;28;20026;-89
2021/04/20 08:26:32;;;;;;;0.30;0.30;;;17.80;75.60;;;;;;5005677;28;20365;-89
2021/04/20 08:29:06;;;;;;;0.10;0.10;;;18.60;72.00;;;;;;5004633;28;20390;-89
2021/04/20 08:31:50;;;;;;;0.28;0.28;;;19.60;70.70;;;;;;5001483;28;20568;-88
2021/04/20 08:34:32;;;;;;;0.10;0.10;;;20.50;68.40;;;;;;5009404;28;20034;-88
2021/04/20 08:37:00;;;;;;;0.20;0.20;;;20.70;63.30;;;;;;5016404;28;20030;-88
2021/04/20 08:39:26;;;;;;;0.25;0.25;;;22.60;55.60;;;;;;5006681;28;20054;-88
2021/04/20 08:42:18;;;;;;;0.10;0.10;;;22.90;54.80;;;;;;4991983;28;20119;-89
2021/04/20 08:45:14;;;;;;;1.35;0.28;;;24.40;49.80;;;;;;4993372;28;20022;-88
2021/04/20 08:47:52;;;;;;;;;;;22.30;52.50;;;;;;5006526;28;20037;-88
2021/04/20 08:50:26;;;;;;;1.27;0.52;;;20.00;58.20;;;;;;5006201;28;19924;-87
2021/04/20 08:53:23;;;;;;;0.50;0.50;;;19.00;59.80;;;;;;5005467;28;20033;-88
2021/04/20 08:56:03;;;;;;;0.40;0.17;;;18.70;63.20;;;;;;5000636;28;20034;-89
2021/04/20 08:58:51;;;;;;;0.20;0.20;;;19.20;59.50;;;;;;5001854;28;20401;-89
2021/04/20 09:01:30;;;;;;;0.20;0.20;;;21.30;55.40;;;;;;4995897;28;20053;-88
2021/04/20 09:04:15;;;;;;;0.20;0.20;;;22.90;55.10;;;;;;5001449;28;20450;-89
2021/04/20 09:06:53;;;;;;;0.10;0.10;;;23.50;46.50;;;;;;4999501;28;20018;-89
2021/04/20 09:09:28;;;;;;;0.30;0.30;;;23.10;48.70;;;;;;5006278;28;20489;-90
2021/04/20 09:12:05;;;;;;;0.25;0.25;;;25.10;45.50;;;;;;4996789;28;20029;-91
2021/04/20 09:14:36;;;;;;;0.15;0.15;;;26.50;43.00;;;;;;4997362;28;20026;-90
2021/04/20 09:17:17;;;;;;;0.00;0.00;;;25.20;41.30;;;;;;5002802;28;20029;-89
2021/04/20 09:19:56;;;;;;;0.30;0.10;;;24.60;44.10;;;;;;4999016;28;20599;-88
2021/04/20 09:22:48;;;;;;;0.45;0.35;;;24.10;42.50;;;;;;5005847;28;20044;-88
2021/04/20 09:25:26;;;;;;;0.30;0.30;;;23.80;38.80;;;;;;4999617;28;20026;-88
2021/04/20 09:28:10;;;;;;;0.45;0.13;;;24.30;41.10;;;;;;5011942;28;20116;-87
2021/04/20 09:30:50;;;;;;;0.10;0.10;;;25.10;37.60;;;;;;4995557;28;20030;-86
2021/04/20 09:33:46;;;;;;;0.28;0.10;;;24.40;42.50;;;;;;4997436;28;20204;-89
2021/04/20 09:36:14;;;;;;;1.50;1.05;;;23.70;40.60;;;;;;4991993;28;20037;-89
2021/04/20 09:38:49;;;;;;;0.38;0.25;;;23.80;45.70;;;;;;4993313;28;20812;-89
2021/04/20 09:41:30;;;;;;;0.08;0.03;;;24.60;40.50;;;;;;5001750;28;20038;-89
2021/04/20 09:44:31;;;;;;;0.20;0.20;;;24.90;41.10;;;;;;4999560;28;20072;-85
2021/04/20 09:47:41;;;;;;;0.13;0.13;;;24.50;38.10;;;;;;5015273;28;20072;-85
2021/04/20 09:50:35;;;;;;;0.10;0.10;;;26.40;36.00;;;;;;4903180;29;20530;-84
2021/04/20 09:53:39;;;;;;;0.20;0.10;;;25.80;34.80;;;;;;4907592;29;20090;-82
2021/04/20 09:56:41;;;;;;;0.00;0.00;;;26.00;36.70;;;;;;4903314;29;20141;-82
2021/04/20 09:59:29;;;;;;;0.22;0.22;;;25.80;37.70;;;;;;4904524;29;20489;-83
2021/04/20 10:02:11;;;;;;;0.05;0.05;;;24.10;43.70;;;;;;4901921;29;21577;-83
2021/04/20 10:04:40;;;;;;;0.60;0.60;;;23.50;43.50;;;;;;4906342;29;20119;-82
2021/04/20 10:07:32;;;;;;;0.00;0.00;;;23.50;38.00;;;;;;4903375;29;20078;-82
2021/04/20 10:10:17;;;;;;;0.90;0.17;;;24.50;36.70;;;;;;4899344;29;20032;-82
2021/04/20 10:13:08;;;;;;;0.00;0.00;;;26.40;35.80;;;;;;4903956;29;20035;-82
2021/04/20 10:15:56;;;;;;;0.70;0.45;;;27.40;31.50;;;;;;4888283;29;20024;-82
2021/04/20 10:18:28;;;;;;;0.13;0.13;;;24.60;33.30;;;;;;4896449;29;20048;-82
2021/04/20 10:21:05;;;;;;;0.17;0.17;;;23.70;40.90;;;;;;4895595;29;20176;-82
2021/04/20 10:23:46;;;;;;;0.55;0.55;;;24.10;38.00;;;;;;4899729;29;20667;-82
2021/04/20 10:26:28;;;;;;;0.95;0.55;;;23.70;38.40;;;;;;4923985;28;20038;-82
2021/04/20 10:29:12;;;;;;;0.13;0.13;;;23.70;37.50;;;;;;4999532;28;20026;-82
2021/04/20 10:31:52;;;;;;;0.10;0.10;;;24.20;36.80;;;;;;4998623;28;20034;-82
2021/04/20 10:34:20;;;;;;;0.20;0.20;;;24.60;36.80;;;;;;5003163;28;20030;-82
2021/04/20 10:36:53;;;;;;;0.00;0.00;;;25.80;35.40;;;;;;5019973;28;20665;-82
2021/04/20 10:39:23;;;;;;;0.20;0.20;;;22.70;43.80;;;;;;4996283;28;20040;-84
2021/04/20 10:41:51;;;;;;;0.00;0.00;;;22.70;43.30;;;;;;4998279;28;20065;-84
2021/04/20 10:44:19;;;;;;;0.73;0.15;;;21.90;45.80;;;;;;5003686;28;20026;-84
2021/04/20 10:46:51;;;;;;;0.82;0.77;;;22.40;43.70;;;;;;5007220;28;20761;-84
2021/04/20 10:49:19;;;;;;;0.32;0.32;;;21.30;46.70;;;;;;5000989;28;20033;-83
2021/04/20 10:51:49;;;;;;;0.40;0.40;;;21.40;44.90;;;;;;5005371;28;20023;-82
2021/04/20 10:54:21;;;;;;;0.68;0.47;;;21.90;44.00;;;;;;5007451;28;20026;-82
2021/04/20 10:56:53;;;;;;;0.10;0.10;;;21.80;43.10;;;;;;5007954;28;20029;-82
2021/04/20 10:59:28;;;;;;;0.00;0.00;;;21.50;43.60;;;;;;5006057;28;20030;-82
2021/04/20 11:01:58;;;;;;;0.38;0.30;;;22.40;41.70;;;;;;5008547;28;20033;-82
2021/04/20 11:04:27;;;;;;;0.20;0.20;;;22.60;41.70;;;;;;4996595;28;20019;-83
2021/04/20 11:07:13;;;;;;;0.30;0.30;;;21.70;43.20;;;;;;5005729;28;20060;-82
2021/04/20 11:09:38;;;;;;;0.17;0.17;;;21.90;44.70;;;;;;4998528;28;20056;-82
2021/04/20 11:12:19;;;;;;;0.00;0.00;;;21.20;45.40;;;;;;4998690;28;20501;-83
2021/04/20 11:14:47;;;;;;;0.30;0.28;;;21.90;43.10;;;;;;5006010;28;20213;-82
2021/04/20 11:17:28;;;;;;;0.00;0.00;;;21.50;43.80;;;;;;5004416;28;20034;-83
2021/04/20 11:20:12;;;;;;;0.15;0.15;;;20.90;45.00;;;;;;5005364;28;20100;-82
2021/04/20 11:22:59;;;;;;;0.10;0.10;;;21.40;44.30;;;;;;5002788;28;20077;-82
2021/04/20 11:26:10;;;;;;;0.10;0.10;;;21.10;45.30;;;;;;5002149;28;20058;-83
2021/04/20 11:28:47;;;;;;;0.22;0.22;;;21.60;42.80;;;;;;4902916;29;20393;-83
2021/04/20 11:31:47;;;;;;;0.25;0.25;;;21.90;42.80;;;;;;4907294;29;20158;-83
2021/04/20 11:34:21;;;;;;;0.10;0.10;;;21.50;43.90;;;;;;4903364;29;20091;-83
2021/04/20 11:36:56;;;;;;;0.20;0.20;;;21.30;43.70;;;;;;4904646;29;20028;-83
2021/04/20 11:39:56;;;;;;;1.35;1.02;;;21.10;44.50;;;;;;4898152;29;20064;-83
2021/04/20 11:42:28;;;;;;;0.05;0.05;;;21.30;45.10;;;;;;4888710;29;20048;-83
2021/04/20 11:44:58;;;;;;;0.35;0.25;;;21.70;42.90;;;;;;4901072;29;20520;-82
2021/04/20 11:47:26;;;;;;;0.28;0.28;;;22.00;40.60;;;;;;4888450;29;20111;-83
2021/04/20 11:49:59;;;;;;;1.17;0.40;;;20.30;43.40;;;;;;4896525;29;20036;-83
2021/04/20 11:52:31;;;;;;;1.02;0.38;;;21.00;44.80;;;;;;4901568;29;20765;-83
2021/04/20 11:55:04;;;;;;;0.40;0.10;;;20.80;44.30;;;;;;4900104;29;20044;-83
2021/04/20 11:57:31;;;;;;;0.65;0.30;;;20.60;43.20;;;;;;4901260;29;20500;-83
2021/04/20 12:00:05;;;;;;;0.70;0.20;;;19.80;43.70;;;;;;4897323;29;20448;-82
2021/04/20 12:02:33;;;;;;;0.28;0.28;;;21.00;42.40;;;;;;4905093;29;20059;-82
2021/04/20 12:05:01;;;;;;;0.00;0.00;;;22.00;40.20;;;;;;4981717;28;20503;-82
2021/04/20 12:07:36;;;;;;;0.10;0.10;;;21.80;40.40;;;;;;4996106;28;20826;-83
2021/04/20 12:10:07;;;;;;;0.28;0.17;;;21.10;42.00;;;;;;5001741;28;20675;-83
2021/04/20 12:12:35;;;;;;;0.35;0.35;;;19.50;48.90;;;;;;5008392;28;20022;-85
2021/04/20 12:15:08;;;;;;;0.10;0.10;;;19.40;46.70;;;;;;4996750;28;20041;-84
2021/04/20 12:17:38;;;;;;;0.10;0.10;;;20.00;45.70;;;;;;5013822;28;20074;-85
2021/04/20 12:20:28;;;;;;;1.65;0.40;;;19.10;48.70;;;;;;5001934;28;20037;-84
2021/04/20 12:22:56;;;;;;;0.10;0.10;;;19.50;46.60;;;;;;4992519;28;20030;-85
2021/04/20 12:25:26;;;;;;;0.55;0.55;;;19.60;47.80;;;;;;4998551;28;20044;-86
2021/04/20 12:28:02;;;;;;;0.20;0.20;;;19.10;49.30;;;;;;4995330;28;20038;-84
2021/04/20 12:30:31;;;;;;;0.40;0.40;;;19.50;47.70;;;;;;5018137;28;20026;-85
2021/04/20 12:32:58;;;;;;;0.10;0.10;;;19.60;48.10;;;;;;4995754;28;20030;-84
2021/04/20 12:35:29;;;;;;;;;;;20.40;45.50;;;;;;5003475;28;20048;-85
2021/04/20 12:37:58;;;;;;;0.20;0.20;;;20.20;59.20;;;;;;5002237;28;19994;-85
2021/04/20 12:40:24;;;;;;;0.22;0.17;;;19.70;48.10;;;;;;5004019;28;20038;-83
2021/04/20 12:43:02;;;;;;;0.08;0.08;;;20.60;44.40;;;;;;4996806;28;20117;-83
2021/04/20 12:45:37;;;;;;;2.75;0.63;;;20.80;44.90;;;;;;5003638;28;20069;-87
2021/04/20 12:48:04;;;;;;;0.10;0.10;;;21.10;43.90;;;;;;5001824;28;20026;-85
2021/04/20 12:50:35;;;;;;;0.00;0.00;;;21.10;42.20;;;;;;5004509;28;20105;-85
2021/04/20 12:53:05;;;;;;;0.30;0.20;;;21.00;41.20;;;;;;4995063;28;20508;-86
2021/04/20 12:55:34;;;;;;;0.70;0.52;;;21.70;40.70;;;;;;4995603;28;20037;-86
2021/04/20 12:58:06;;;;;;;0.15;0.15;;;21.40;40.00;;;;;;4993317;28;20486;-87
2021/04/20 13:00:34;;;;;;;0.65;0.32;;;20.90;42.60;;;;;;4997599;28;20097;-86
2021/04/20 13:03:02;;;;;;;1.17;0.05;;;21.40;42.00;;;;;;5002184;28;20025;-84
2021/04/20 13:05:34;;;;;;;0.00;0.00;;;20.40;42.00;;;;;;4994788;28;20030;-84
2021/04/20 13:08:16;;;;;;;0.10;0.10;;;19.90;42.90;;;;;;5004149;28;20022;-85
2021/04/20 13:10:44;;;;;;;0.10;0.10;;;19.80;43.60;;;;;;5003112;28;20497;-85
2021/04/20 13:13:13;;;;;;;0.10;0.10;;;20.80;41.80;;;;;;5002809;28;20026;-86
2021/04/20 13:15:41;;;;;;;0.00;0.00;;;21.20;40.60;;;;;;4994314;28;20064;-83
2021/04/20 13:18:16;;;;;;;0.05;0.05;;;21.00;41.30;;;;;;5005570;28;20026;-85
2021/04/20 13:20:45;;;;;;;0.45;0.20;;;20.20;44.40;;;;;;5002028;28;20026;-83
2021/04/20 13:23:28;;;;;;;1.38;0.13;;;20.00;45.80;;;;;;5001128;28;20049;-84